sensor_id;sensor_type;location;lat;lon;timestamp;pressure;altitude;pressure_sealevel;temperature;humidity
56064;BME280;41940;52.880;13.012;2022-07-29T00:02:17;101550.28;;;13.58;100.00
56064;BME280;41940;52.880;13.012;2022-07-29T00:04:42;101545.19;;;13.55;100.00
56064;BME280;41940;52.880;13.012;2022-07-29T00:07:07;101552.44;;;13.55;100.00
56064;BME280;41940;52.880;13.012;2022-07-29T00:09:33;101549.38;;;13.49;100.00
56064;BME280;41940;52.880;13.012;2022-07-29T00:11:59;101551.44;;;13.29;100.00
56064;BME280;41940;52.880;13.012;2022-07-29T00:14:25;101553.50;;;13.70;100.00
56064;BME280;41940;52.880;13.012;2022-07-29T00:16:50;101548.69;;;13.47;100.00
56064;BME280;41940;52.880;13.012;2022-07-29T00:19:16;101552.47;;;13.63;100.00
56064;BME280;41940;52.880;13.012;2022-07-29T00:21:41;101546.66;;;13.41;100.00
56064;BME280;41940;52.880;13.012;2022-07-29T00:24:06;101540.00;;;13.54;100.00
56064;BME280;41940;52.880;13.012;2022-07-29T00:26:32;101551.47;;;13.64;100.00
56064;BME280;41940;52.880;13.012;2022-07-29T00:29:00;101554.09;;;13.47;100.00
56064;BME280;41940;52.880;13.012;2022-07-29T00:31:26;101550.66;;;13.72;100.00
56064;BME280;41940;52.880;13.012;2022-07-29T00:33:52;101546.50;;;13.43;100.00
56064;BME280;41940;52.880;13.012;2022-07-29T00:36:17;101542.31;;;13.48;100.00
56064;BME280;41940;52.880;13.012;2022-07-29T00:38:42;101542.97;;;13.42;100.00
56064;BME280;41940;52.880;13.012;2022-07-29T00:41:10;101541.78;;;13.18;100.00
56064;BME280;41940;52.880;13.012;2022-07-29T00:43:36;101534.34;;;13.12;100.00
56064;BME280;41940;52.880;13.012;2022-07-29T00:46:01;101531.00;;;13.18;100.00
56064;BME280;41940;52.880;13.012;2022-07-29T00:48:26;101523.72;;;13.11;100.00
56064;BME280;41940;52.880;13.012;2022-07-29T00:50:52;101522.03;;;13.36;100.00
56064;BME280;41940;52.880;13.012;2022-07-29T00:53:30;101523.63;;;13.21;100.00
56064;BME280;41940;52.880;13.012;2022-07-29T00:56:15;101511.13;;;13.11;100.00
56064;BME280;41940;52.880;13.012;2022-07-29T00:58:41;101513.25;;;13.34;100.00
56064;BME280;41940;52.880;13.012;2022-07-29T01:01:06;101517.06;;;13.49;100.00
56064;BME280;41940;52.880;13.012;2022-07-29T01:03:31;101518.31;;;13.29;100.00
56064;BME280;41940;52.880;13.012;2022-07-29T01:05:57;101521.19;;;13.36;100.00
56064;BME280;41940;52.880;13.012;2022-07-29T01:08:22;101521.44;;;13.42;100.00
56064;BME280;41940;52.880;13.012;2022-07-29T01:10:48;101527.84;;;13.23;100.00
56064;BME280;41940;52.880;13.012;2022-07-29T01:13:14;101529.22;;;13.27;100.00
56064;BME280;41940;52.880;13.012;2022-07-29T01:15:45;101525.78;;;13.17;100.00
56064;BME280;41940;52.880;13.012;2022-07-29T01:18:14;101522.34;;;13.33;100.00
56064;BME280;41940;52.880;13.012;2022-07-29T01:28:38;101510.06;;;13.04;100.00
56064;BME280;41940;52.880;13.012;2022-07-29T01:31:05;101505.91;;;13.10;100.00
56064;BME280;41940;52.880;13.012;2022-07-29T01:33:32;101495.88;;;12.94;100.00
56064;BME280;41940;52.880;13.012;2022-07-29T01:36:17;101495.66;;;12.87;100.00
56064;BME280;41940;52.880;13.012;2022-07-29T01:38:44;101496.03;;;12.92;100.00
56064;BME280;41940;52.880;13.012;2022-07-29T01:41:14;101487.56;;;12.79;100.00
56064;BME280;41940;52.880;13.012;2022-07-29T01:46:13;101482.81;;;12.99;100.00
56064;BME280;41940;52.880;13.012;2022-07-29T01:48:42;101485.75;;;12.87;100.00
56064;BME280;41940;52.880;13.012;2022-07-29T01:56:31;101466.06;;;12.87;100.00
56064;BME280;41940;52.880;13.012;2022-07-29T01:58:59;101461.13;;;12.74;100.00
56064;BME280;41940;52.880;13.012;2022-07-29T02:01:25;101451.69;;;12.96;100.00
56064;BME280;41940;52.880;13.012;2022-07-29T02:03:52;101451.34;;;12.99;100.00
56064;BME280;41940;52.880;13.012;2022-07-29T02:06:19;101444.28;;;12.98;100.00
56064;BME280;41940;52.880;13.012;2022-07-29T02:08:46;101446.03;;;12.81;100.00
56064;BME280;41940;52.880;13.012;2022-07-29T02:11:12;101444.41;;;12.88;100.00
56064;BME280;41940;52.880;13.012;2022-07-29T02:13:38;101443.19;;;12.83;100.00
56064;BME280;41940;52.880;13.012;2022-07-29T02:16:04;101432.66;;;12.90;100.00
56064;BME280;41940;52.880;13.012;2022-07-29T02:18:30;101435.75;;;13.03;100.00
56064;BME280;41940;52.880;13.012;2022-07-29T02:20:56;101436.19;;;12.98;100.00
56064;BME280;41940;52.880;13.012;2022-07-29T02:23:24;101436.63;;;12.59;100.00
56064;BME280;41940;52.880;13.012;2022-07-29T02:25:53;101444.81;;;12.76;100.00
56064;BME280;41940;52.880;13.012;2022-07-29T02:28:20;101449.09;;;12.60;100.00
56064;BME280;41940;52.880;13.012;2022-07-29T02:30:47;101450.16;;;12.67;100.00
56064;BME280;41940;52.880;13.012;2022-07-29T02:33:14;101445.13;;;12.72;100.00
56064;BME280;41940;52.880;13.012;2022-07-29T02:35:40;101444.13;;;12.73;100.00
56064;BME280;41940;52.880;13.012;2022-07-29T02:38:07;101444.06;;;12.92;100.00
56064;BME280;41940;52.880;13.012;2022-07-29T02:40:51;101445.69;;;12.76;100.00
56064;BME280;41940;52.880;13.012;2022-07-29T02:43:18;101448.09;;;12.87;100.00
56064;BME280;41940;52.880;13.012;2022-07-29T02:45:45;101456.28;;;12.78;100.00
56064;BME280;41940;52.880;13.012;2022-07-29T02:48:13;101461.59;;;12.96;100.00
56064;BME280;41940;52.880;13.012;2022-07-29T02:50:42;101451.13;;;12.93;100.00
56064;BME280;41940;52.880;13.012;2022-07-29T02:53:18;101450.09;;;12.85;100.00
56064;BME280;41940;52.880;13.012;2022-07-29T02:55:45;101452.41;;;12.80;100.00
56064;BME280;41940;52.880;13.012;2022-07-29T02:58:21;101458.00;;;12.87;100.00
56064;BME280;41940;52.880;13.012;2022-07-29T03:00:51;101454.53;;;12.95;100.00
56064;BME280;41940;52.880;13.012;2022-07-29T03:03:17;101447.31;;;12.95;100.00
56064;BME280;41940;52.880;13.012;2022-07-29T03:05:44;101447.41;;;12.85;100.00
56064;BME280;41940;52.880;13.012;2022-07-29T03:08:10;101444.41;;;12.88;100.00
56064;BME280;41940;52.880;13.012;2022-07-29T03:10:36;101445.25;;;12.89;100.00
56064;BME280;41940;52.880;13.012;2022-07-29T03:13:03;101450.44;;;12.91;100.00
56064;BME280;41940;52.880;13.012;2022-07-29T03:15:29;101440.34;;;12.84;100.00
56064;BME280;41940;52.880;13.012;2022-07-29T03:17:55;101450.03;;;13.03;100.00
56064;BME280;41940;52.880;13.012;2022-07-29T03:20:20;101452.00;;;12.93;100.00
56064;BME280;41940;52.880;13.012;2022-07-29T03:22:46;101447.19;;;12.79;100.00
56064;BME280;41940;52.880;13.012;2022-07-29T03:25:15;101444.19;;;12.82;100.00
56064;BME280;41940;52.880;13.012;2022-07-29T03:27:41;101443.75;;;12.95;100.00
56064;BME280;41940;52.880;13.012;2022-07-29T03:30:07;101449.72;;;12.80;100.00
56064;BME280;41940;52.880;13.012;2022-07-29T03:32:33;101435.91;;;12.75;100.00
56064;BME280;41940;52.880;13.012;2022-07-29T03:34:58;101433.16;;;12.93;100.00
56064;BME280;41940;52.880;13.012;2022-07-29T03:37:24;101433.97;;;12.85;100.00
56064;BME280;41940;52.880;13.012;2022-07-29T03:39:49;101433.97;;;12.85;100.00
56064;BME280;41940;52.880;13.012;2022-07-29T03:42:16;101440.97;;;12.78;100.00
56064;BME280;41940;52.880;13.012;2022-07-29T03:44:45;101435.97;;;12.83;100.00
56064;BME280;41940;52.880;13.012;2022-07-29T03:47:10;101425.50;;;12.80;100.00
56064;BME280;41940;52.880;13.012;2022-07-29T03:49:38;101423.44;;;13.00;100.00
56064;BME280;41940;52.880;13.012;2022-07-29T03:52:05;101421.34;;;12.86;100.00
56064;BME280;41940;52.880;13.012;2022-07-29T03:54:31;101432.00;;;12.96;100.00
56064;BME280;41940;52.880;13.012;2022-07-29T03:56:56;101418.06;;;13.00;100.00
56064;BME280;41940;52.880;13.012;2022-07-29T03:59:24;101423.72;;;12.89;100.00
56064;BME280;41940;52.880;13.012;2022-07-29T04:01:50;101419.50;;;12.86;100.00
56064;BME280;41940;52.880;13.012;2022-07-29T04:04:15;101416.44;;;13.08;100.00
56064;BME280;41940;52.880;13.012;2022-07-29T04:06:41;101416.16;;;12.93;100.00
56064;BME280;41940;52.880;13.012;2022-07-29T04:09:07;101416.25;;;13.09;100.00
56064;BME280;41940;52.880;13.012;2022-07-29T04:11:33;101412.31;;;12.95;100.00
56064;BME280;41940;52.880;13.012;2022-07-29T04:13:58;101417.75;;;13.03;100.00
56064;BME280;41940;52.880;13.012;2022-07-29T04:16:23;101414.63;;;13.16;100.00
56064;BME280;41940;52.880;13.012;2022-07-29T04:18:49;101419.00;;;13.26;100.00
56064;BME280;41940;52.880;13.012;2022-07-29T04:21:14;101421.81;;;13.08;100.00
56064;BME280;41940;52.880;13.012;2022-07-29T04:23:39;101423.31;;;13.10;100.00
56064;BME280;41940;52.880;13.012;2022-07-29T04:26:06;101421.00;;;13.15;100.00
56064;BME280;41940;52.880;13.012;2022-07-29T04:28:34;101428.97;;;13.33;100.00
56064;BME280;41940;52.880;13.012;2022-07-29T04:30:59;101437.34;;;13.22;100.00
56064;BME280;41940;52.880;13.012;2022-07-29T04:33:25;101436.66;;;13.20;100.00
56064;BME280;41940;52.880;13.012;2022-07-29T04:35:51;101435.47;;;13.23;100.00
56064;BME280;41940;52.880;13.012;2022-07-29T04:38:16;101433.34;;;13.34;100.00
56064;BME280;41940;52.880;13.012;2022-07-29T04:40:41;101440.94;;;13.39;100.00
56064;BME280;41940;52.880;13.012;2022-07-29T04:43:07;101442.16;;;13.45;100.00
56064;BME280;41940;52.880;13.012;2022-07-29T04:45:32;101439.97;;;13.48;100.00
56064;BME280;41940;52.880;13.012;2022-07-29T04:47:57;101441.03;;;13.56;100.00
56064;BME280;41940;52.880;13.012;2022-07-29T04:50:22;101445.19;;;13.42;100.00
56064;BME280;41940;52.880;13.012;2022-07-29T04:52:48;101443.00;;;13.45;100.00
56064;BME280;41940;52.880;13.012;2022-07-29T04:55:13;101445.94;;;13.60;100.00
56064;BME280;41940;52.880;13.012;2022-07-29T04:57:38;101443.22;;;13.60;100.00
56064;BME280;41940;52.880;13.012;2022-07-29T05:00:04;101439.41;;;13.79;100.00
56064;BME280;41940;52.880;13.012;2022-07-29T05:02:29;101436.34;;;13.74;100.00
56064;BME280;41940;52.880;13.012;2022-07-29T05:04:55;101428.13;;;13.76;100.00
56064;BME280;41940;52.880;13.012;2022-07-29T05:07:20;101434.03;;;13.88;100.00
56064;BME280;41940;52.880;13.012;2022-07-29T05:09:46;101424.09;;;14.05;100.00
56064;BME280;41940;52.880;13.012;2022-07-29T05:12:11;101425.81;;;14.14;100.00
56064;BME280;41940;52.880;13.012;2022-07-29T05:14:36;101429.84;;;14.10;100.00
56064;BME280;41940;52.880;13.012;2022-07-29T05:17:02;101429.50;;;14.21;100.00
56064;BME280;41940;52.880;13.012;2022-07-29T05:19:27;101423.59;;;14.18;100.00
56064;BME280;41940;52.880;13.012;2022-07-29T05:21:53;101425.47;;;14.25;100.00
56064;BME280;41940;52.880;13.012;2022-07-29T05:24:18;101430.53;;;14.29;100.00
56064;BME280;41940;52.880;13.012;2022-07-29T05:26:43;101422.25;;;14.38;100.00
56064;BME280;41940;52.880;13.012;2022-07-29T05:29:09;101426.63;;;14.23;100.00
56064;BME280;41940;52.880;13.012;2022-07-29T05:31:34;101422.75;;;14.34;100.00
56064;BME280;41940;52.880;13.012;2022-07-29T05:33:59;101416.84;;;14.30;100.00
56064;BME280;41940;52.880;13.012;2022-07-29T05:36:25;101418.53;;;14.39;100.00
56064;BME280;41940;52.880;13.012;2022-07-29T05:38:50;101418.69;;;14.54;100.00
56064;BME280;41940;52.880;13.012;2022-07-29T05:41:17;101415.47;;;14.51;100.00
56064;BME280;41940;52.880;13.012;2022-07-29T05:43:42;101420.72;;;14.52;100.00
56064;BME280;41940;52.880;13.012;2022-07-29T05:46:08;101413.31;;;14.54;100.00
56064;BME280;41940;52.880;13.012;2022-07-29T05:48:33;101415.16;;;14.54;100.00
56064;BME280;41940;52.880;13.012;2022-07-29T05:50:58;101418.19;;;14.51;100.00
56064;BME280;41940;52.880;13.012;2022-07-29T05:53:24;101415.00;;;14.55;100.00
56064;BME280;41940;52.880;13.012;2022-07-29T05:55:49;101405.22;;;14.54;100.00
56064;BME280;41940;52.880;13.012;2022-07-29T05:58:14;101409.06;;;14.60;100.00
56064;BME280;41940;52.880;13.012;2022-07-29T06:00:40;101411.06;;;14.66;100.00
56064;BME280;41940;52.880;13.012;2022-07-29T06:03:05;101412.94;;;14.66;100.00
56064;BME280;41940;52.880;13.012;2022-07-29T06:05:30;101414.81;;;14.74;100.00
56064;BME280;41940;52.880;13.012;2022-07-29T06:07:56;101414.16;;;14.71;100.00
56064;BME280;41940;52.880;13.012;2022-07-29T06:10:21;101419.50;;;14.80;100.00
56064;BME280;41940;52.880;13.012;2022-07-29T06:12:47;101422.22;;;14.80;100.00
56064;BME280;41940;52.880;13.012;2022-07-29T06:15:12;101425.56;;;14.82;100.00
56064;BME280;41940;52.880;13.012;2022-07-29T06:17:37;101423.06;;;14.72;100.00
56064;BME280;41940;52.880;13.012;2022-07-29T06:20:03;101424.03;;;14.88;100.00
56064;BME280;41940;52.880;13.012;2022-07-29T06:22:28;101417.75;;;15.04;100.00
56064;BME280;41940;52.880;13.012;2022-07-29T06:24:54;101413.69;;;15.08;100.00
56064;BME280;41940;52.880;13.012;2022-07-29T06:27:19;101413.72;;;15.39;100.00
56064;BME280;41940;52.880;13.012;2022-07-29T06:29:45;101422.03;;;15.29;100.00
56064;BME280;41940;52.880;13.012;2022-07-29T06:32:10;101420.19;;;15.61;100.00
56064;BME280;41940;52.880;13.012;2022-07-29T06:34:35;101425.09;;;15.58;100.00
56064;BME280;41940;52.880;13.012;2022-07-29T06:37:05;101426.59;;;15.60;100.00
56064;BME280;41940;52.880;13.012;2022-07-29T06:39:31;101430.03;;;15.86;100.00
56064;BME280;41940;52.880;13.012;2022-07-29T06:41:56;101421.78;;;16.02;100.00
56064;BME280;41940;52.880;13.012;2022-07-29T06:44:21;101422.00;;;16.16;100.00
56064;BME280;41940;52.880;13.012;2022-07-29T06:46:47;101422.56;;;16.49;100.00
56064;BME280;41940;52.880;13.012;2022-07-29T06:49:14;101428.25;;;16.39;100.00
56064;BME280;41940;52.880;13.012;2022-07-29T06:51:40;101421.53;;;16.35;100.00
56064;BME280;41940;52.880;13.012;2022-07-29T06:54:05;101415.97;;;16.52;100.00
56064;BME280;41940;52.880;13.012;2022-07-29T06:56:31;101416.53;;;16.62;100.00
56064;BME280;41940;52.880;13.012;2022-07-29T06:58:57;101420.47;;;16.75;100.00
56064;BME280;41940;52.880;13.012;2022-07-29T07:01:22;101423.78;;;16.62;100.00
56064;BME280;41940;52.880;13.012;2022-07-29T07:03:48;101419.81;;;16.73;100.00
56064;BME280;41940;52.880;13.012;2022-07-29T07:06:13;101418.69;;;16.67;100.00
56064;BME280;41940;52.880;13.012;2022-07-29T07:08:39;101416.91;;;16.74;100.00
56064;BME280;41940;52.880;13.012;2022-07-29T07:11:04;101424.66;;;16.77;100.00
56064;BME280;41940;52.880;13.012;2022-07-29T07:13:31;101425.63;;;16.84;100.00
56064;BME280;41940;52.880;13.012;2022-07-29T07:16:00;101415.41;;;16.72;100.00
56064;BME280;41940;52.880;13.012;2022-07-29T07:18:25;101421.63;;;17.10;100.00
56064;BME280;41940;52.880;13.012;2022-07-29T07:20:50;101424.13;;;17.12;100.00
56064;BME280;41940;52.880;13.012;2022-07-29T07:23:16;101424.50;;;17.09;100.00
56064;BME280;41940;52.880;13.012;2022-07-29T07:25:41;101425.06;;;17.19;100.00
56064;BME280;41940;52.880;13.012;2022-07-29T08:02:54;101396.31;;;18.42;99.17
56064;BME280;41940;52.880;13.012;2022-07-29T08:05:19;101393.31;;;18.36;99.83
56064;BME280;41940;52.880;13.012;2022-07-29T08:07:46;101399.88;;;18.49;99.00
56064;BME280;41940;52.880;13.012;2022-07-29T08:10:14;101389.75;;;18.64;98.06
56064;BME280;41940;52.880;13.012;2022-07-29T08:12:40;101388.56;;;18.74;95.30
56064;BME280;41940;52.880;13.012;2022-07-29T08:15:06;101391.00;;;18.62;100.00
56064;BME280;41940;52.880;13.012;2022-07-29T08:17:33;101384.84;;;18.81;100.00
56064;BME280;41940;52.880;13.012;2022-07-29T08:19:58;101384.25;;;19.21;99.02
56064;BME280;41940;52.880;13.012;2022-07-29T08:22:23;101385.38;;;19.54;95.04
56064;BME280;41940;52.880;13.012;2022-07-29T08:24:49;101385.16;;;19.55;90.93
56064;BME280;41940;52.880;13.012;2022-07-29T08:27:18;101375.44;;;19.95;88.77
56064;BME280;41940;52.880;13.012;2022-07-29T08:29:44;101377.53;;;20.26;nan
56064;BME280;41940;52.880;13.012;2022-07-29T08:32:10;101381.28;;;20.32;85.83
56064;BME280;41940;52.880;13.012;2022-07-29T08:34:35;101375.63;;;20.54;86.47
56064;BME280;41940;52.880;13.012;2022-07-29T08:37:01;101374.34;;;20.63;82.96
56064;BME280;41940;52.880;13.012;2022-07-29T08:39:27;101375.47;;;21.14;86.46
56064;BME280;41940;52.880;13.012;2022-07-29T08:41:52;101373.53;;;21.21;81.07
56064;BME280;41940;52.880;13.012;2022-07-29T08:44:18;101374.28;;;21.42;82.83
56064;BME280;41940;52.880;13.012;2022-07-29T08:46:44;101369.69;;;22.00;77.18
56064;BME280;41940;52.880;13.012;2022-07-29T08:49:10;101368.66;;;22.01;74.86
56064;BME280;41940;52.880;13.012;2022-07-29T08:51:39;101364.19;;;21.81;72.94
56064;BME280;41940;52.880;13.012;2022-07-29T08:54:05;101365.81;;;21.89;71.98
56064;BME280;41940;52.880;13.012;2022-07-29T08:56:31;101367.13;;;21.80;73.34
56064;BME280;41940;52.880;13.012;2022-07-29T08:58:58;101371.66;;;21.93;75.10
56064;BME280;41940;52.880;13.012;2022-07-29T09:01:26;101368.78;;;22.13;72.07
56064;BME280;41940;52.880;13.012;2022-07-29T09:03:55;101367.81;;;22.51;71.75
56064;BME280;41940;52.880;13.012;2022-07-29T09:06:22;101368.22;;;22.73;72.05
56064;BME280;41940;52.880;13.012;2022-07-29T09:08:51;101365.69;;;22.90;67.54
56064;BME280;41940;52.880;13.012;2022-07-29T09:11:16;101370.75;;;23.05;66.45
56064;BME280;41940;52.880;13.012;2022-07-29T09:13:42;101361.69;;;22.74;67.41
56064;BME280;41940;52.880;13.012;2022-07-29T09:16:07;101366.75;;;23.08;64.00
56064;BME280;41940;52.880;13.012;2022-07-29T09:18:38;101359.28;;;23.15;64.25
56064;BME280;41940;52.880;13.012;2022-07-29T09:21:05;101359.78;;;23.42;62.62
56064;BME280;41940;52.880;13.012;2022-07-29T09:26:29;101352.78;;;23.47;61.54
56064;BME280;41940;52.880;13.012;2022-07-29T09:28:57;101347.03;;;23.79;63.10
56064;BME280;41940;52.880;13.012;2022-07-29T09:31:33;101351.63;;;23.97;64.84
56064;BME280;41940;52.880;13.012;2022-07-29T09:33:59;101353.53;;;24.08;61.04
56064;BME280;41940;52.880;13.012;2022-07-29T09:36:26;101354.19;;;23.37;58.02
56064;BME280;41940;52.880;13.012;2022-07-29T09:39:01;101353.66;;;23.59;57.45
56064;BME280;41940;52.880;13.012;2022-07-29T09:41:29;101356.13;;;24.03;61.10
56064;BME280;41940;52.880;13.012;2022-07-29T09:43:55;101344.97;;;24.05;58.94
56064;BME280;41940;52.880;13.012;2022-07-29T09:46:21;101344.25;;;24.33;59.13
56064;BME280;41940;52.880;13.012;2022-07-29T09:49:06;101341.75;;;24.31;55.17
56064;BME280;41940;52.880;13.012;2022-07-29T09:51:32;101331.28;;;24.28;55.67
56064;BME280;41940;52.880;13.012;2022-07-29T09:53:58;101337.00;;;24.27;57.02
56064;BME280;41940;52.880;13.012;2022-07-29T09:56:38;101320.53;;;24.39;57.21
56064;BME280;41940;52.880;13.012;2022-07-29T09:59:08;101322.91;;;24.71;55.04
56064;BME280;41940;52.880;13.012;2022-07-29T10:01:34;101327.72;;;24.92;54.97
56064;BME280;41940;52.880;13.012;2022-07-29T10:04:01;101322.72;;;25.18;55.87
56064;BME280;41940;52.880;13.012;2022-07-29T10:06:27;101320.75;;;25.02;50.94
56064;BME280;41940;52.880;13.012;2022-07-29T10:08:53;101322.28;;;24.81;51.74
56064;BME280;41940;52.880;13.012;2022-07-29T10:11:18;101311.22;;;24.75;49.59
56064;BME280;41940;52.880;13.012;2022-07-29T10:13:47;101313.59;;;25.30;53.54
56064;BME280;41940;52.880;13.012;2022-07-29T10:16:13;101309.88;;;25.19;48.64
56064;BME280;41940;52.880;13.012;2022-07-29T10:18:40;101307.88;;;25.14;48.64
56064;BME280;41940;52.880;13.012;2022-07-29T10:21:06;101312.94;;;25.85;50.42
56064;BME280;41940;52.880;13.012;2022-07-29T10:23:33;101323.06;;;25.51;51.76
56064;BME280;41940;52.880;13.012;2022-07-29T10:26:00;101308.56;;;24.69;46.79
56064;BME280;41940;52.880;13.012;2022-07-29T10:28:26;101303.84;;;24.52;45.55
56064;BME280;41940;52.880;13.012;2022-07-29T10:30:52;101306.91;;;25.37;47.17
56064;BME280;41940;52.880;13.012;2022-07-29T10:38:45;101307.22;;;26.43;43.49
56064;BME280;41940;52.880;13.012;2022-07-29T10:41:33;101301.97;;;25.68;44.46
56064;BME280;41940;52.880;13.012;2022-07-29T10:44:29;101304.44;;;25.53;44.05
56064;BME280;41940;52.880;13.012;2022-07-29T10:46:55;101294.63;;;25.91;43.39
56064;BME280;41940;52.880;13.012;2022-07-29T10:49:26;101295.50;;;26.53;42.85
56064;BME280;41940;52.880;13.012;2022-07-29T10:52:00;101298.97;;;25.53;43.06
56064;BME280;41940;52.880;13.012;2022-07-29T11:05:03;101304.13;;;24.91;46.07
56064;BME280;41940;52.880;13.012;2022-07-29T11:07:30;101290.13;;;25.05;43.21
56064;BME280;41940;52.880;13.012;2022-07-29T11:15:11;101297.22;;;25.64;40.65
56064;BME280;41940;52.880;13.012;2022-07-29T11:23:00;101291.16;;;25.79;41.43
56064;BME280;41940;52.880;13.012;2022-07-29T11:25:26;101285.50;;;25.51;41.17
56064;BME280;41940;52.880;13.012;2022-07-29T11:27:52;101275.59;;;25.67;40.45
56064;BME280;41940;52.880;13.012;2022-07-29T11:30:19;101283.94;;;25.73;40.37
56064;BME280;41940;52.880;13.012;2022-07-29T11:32:45;101281.91;;;26.02;41.38
56064;BME280;41940;52.880;13.012;2022-07-29T11:35:14;101281.59;;;26.60;41.55
56064;BME280;41940;52.880;13.012;2022-07-29T11:37:40;101285.72;;;26.80;39.25
56064;BME280;41940;52.880;13.012;2022-07-29T11:45:07;101286.38;;;26.47;42.22
56064;BME280;41940;52.880;13.012;2022-07-29T11:47:39;101288.44;;;26.57;40.57
56064;BME280;41940;52.880;13.012;2022-07-29T11:50:07;101280.75;;;26.37;41.98
56064;BME280;41940;52.880;13.012;2022-07-29T11:52:39;101279.28;;;26.74;40.21
56064;BME280;41940;52.880;13.012;2022-07-29T11:55:10;101280.72;;;25.98;40.20
56064;BME280;41940;52.880;13.012;2022-07-29T11:57:44;101286.38;;;26.47;38.44
56064;BME280;41940;52.880;13.012;2022-07-29T12:00:10;101274.47;;;26.59;39.55
56064;BME280;41940;52.880;13.012;2022-07-29T12:02:43;101273.09;;;26.61;38.66
56064;BME280;41940;52.880;13.012;2022-07-29T12:05:10;101272.72;;;26.53;40.13
56064;BME280;41940;52.880;13.012;2022-07-29T12:07:39;101258.69;;;26.99;39.79
56064;BME280;41940;52.880;13.012;2022-07-29T12:10:06;101272.69;;;27.52;38.87
56064;BME280;41940;52.880;13.012;2022-07-29T12:12:33;101267.34;;;26.85;37.10
56064;BME280;41940;52.880;13.012;2022-07-29T12:15:11;101272.69;;;27.52;40.71
56064;BME280;41940;52.880;13.012;2022-07-29T12:17:36;101254.91;;;27.05;38.72
56064;BME280;41940;52.880;13.012;2022-07-29T12:20:03;101253.28;;;27.09;39.21
56064;BME280;41940;52.880;13.012;2022-07-29T12:22:32;101244.63;;;26.45;37.78
56064;BME280;41940;52.880;13.012;2022-07-29T12:25:03;101258.06;;;26.91;40.52
56064;BME280;41940;52.880;13.012;2022-07-29T12:27:29;101260.78;;;26.20;38.03
56064;BME280;41940;52.880;13.012;2022-07-29T12:30:01;101257.50;;;26.45;41.67
56064;BME280;41940;52.880;13.012;2022-07-29T12:32:49;101254.50;;;26.24;40.14
56064;BME280;41940;52.880;13.012;2022-07-29T12:35:17;101264.84;;;26.61;39.21
56064;BME280;41940;52.880;13.012;2022-07-29T12:37:45;101260.06;;;26.74;39.31
56064;BME280;41940;52.880;13.012;2022-07-29T12:40:15;101251.31;;;27.04;38.17
56064;BME280;41940;52.880;13.012;2022-07-29T12:43:20;101249.66;;;27.63;38.78
56064;BME280;41940;52.880;13.012;2022-07-29T12:45:51;101251.22;;;27.54;38.50
56064;BME280;41940;52.880;13.012;2022-07-29T12:48:33;101245.72;;;26.72;38.62
56064;BME280;41940;52.880;13.012;2022-07-29T12:51:01;101246.91;;;26.31;41.48
56064;BME280;41940;52.880;13.012;2022-07-29T12:53:27;101254.19;;;26.04;41.31
56064;BME280;41940;52.880;13.012;2022-07-29T12:55:55;101246.16;;;25.80;42.46
56064;BME280;41940;52.880;13.012;2022-07-29T12:58:38;101239.53;;;25.42;39.66
56064;BME280;41940;52.880;13.012;2022-07-29T13:01:07;101238.50;;;25.82;38.52
56064;BME280;41940;52.880;13.012;2022-07-29T13:04:05;101232.97;;;26.38;39.65
56064;BME280;41940;52.880;13.012;2022-07-29T13:06:35;101223.38;;;27.18;40.53
56064;BME280;41940;52.880;13.012;2022-07-29T13:09:09;101225.41;;;27.60;39.44
56064;BME280;41940;52.880;13.012;2022-07-29T13:11:40;101228.53;;;27.74;39.45
56064;BME280;41940;52.880;13.012;2022-07-29T13:14:08;101218.06;;;27.76;39.01
56064;BME280;41940;52.880;13.012;2022-07-29T13:16:35;101222.03;;;27.20;37.54
56064;BME280;41940;52.880;13.012;2022-07-29T13:19:08;101215.41;;;26.89;37.64
56064;BME280;41940;52.880;13.012;2022-07-29T13:21:34;101218.22;;;26.44;37.83
56064;BME280;41940;52.880;13.012;2022-07-29T13:24:01;101221.78;;;27.22;39.69
56064;BME280;41940;52.880;13.012;2022-07-29T13:26:26;101215.00;;;26.30;37.98
56064;BME280;41940;52.880;13.012;2022-07-29T13:28:53;101209.78;;;26.29;37.94
56064;BME280;41940;52.880;13.012;2022-07-29T13:31:19;101196.66;;;26.81;39.22
56064;BME280;41940;52.880;13.012;2022-07-29T13:33:45;101203.31;;;27.50;38.26
56064;BME280;41940;52.880;13.012;2022-07-29T13:36:10;101205.88;;;27.29;38.37
56064;BME280;41940;52.880;13.012;2022-07-29T13:38:36;101194.19;;;27.87;39.29
56064;BME280;41940;52.880;13.012;2022-07-29T13:41:01;101186.44;;;27.41;37.75
56064;BME280;41940;52.880;13.012;2022-07-29T13:43:27;101185.09;;;27.81;39.88
56064;BME280;41940;52.880;13.012;2022-07-29T13:45:52;101188.84;;;27.00;37.98
56064;BME280;41940;52.880;13.012;2022-07-29T13:48:17;101184.09;;;27.22;38.48
56064;BME280;41940;52.880;13.012;2022-07-29T13:50:43;101174.44;;;26.87;37.90
56064;BME280;41940;52.880;13.012;2022-07-29T13:53:09;101188.09;;;27.42;39.72
56064;BME280;41940;52.880;13.012;2022-07-29T13:55:34;101187.84;;;27.11;38.45
56064;BME280;41940;52.880;13.012;2022-07-29T13:58:00;101192.69;;;27.31;38.25
56064;BME280;41940;52.880;13.012;2022-07-29T14:00:25;101184.97;;;26.46;39.21
56064;BME280;41940;52.880;13.012;2022-07-29T14:02:51;101184.88;;;26.85;41.15